createdAt,value
2022-12-31T00:01:19.330Z,0.94
2022-12-31T00:03:47.475Z,0.83
2022-12-31T00:06:26.391Z,0.79
2022-12-31T00:08:56.253Z,0.80
2022-12-31T00:11:26.185Z,0.73
2022-12-31T00:13:54.982Z,0.72
2022-12-31T00:16:27.857Z,0.69
2022-12-31T00:18:59.434Z,0.64
2022-12-31T00:21:30.230Z,0.63
2022-12-31T00:23:58.588Z,0.65
2022-12-31T00:26:32.767Z,0.68
2022-12-31T00:29:02.329Z,0.69
2022-12-31T00:31:33.508Z,0.65
2022-12-31T00:34:02.570Z,0.56
2022-12-31T00:36:34.844Z,0.50
2022-12-31T00:39:05.229Z,0.47
2022-12-31T00:41:33.332Z,0.40
2022-12-31T00:44:01.642Z,0.40
2022-12-31T00:46:29.799Z,0.44
2022-12-31T00:48:58.021Z,0.46
2022-12-31T00:51:27.744Z,0.47
2022-12-31T00:53:57.388Z,0.37
2022-12-31T00:56:28.519Z,0.31
2022-12-31T00:58:57.523Z,0.35
2022-12-31T01:01:31.885Z,0.38
2022-12-31T01:04:20.630Z,0.39
2022-12-31T01:06:49.385Z,0.37
2022-12-31T01:09:18.250Z,0.35
2022-12-31T01:11:46.593Z,0.31
2022-12-31T01:14:18.213Z,0.34
2022-12-31T01:16:49.178Z,0.34
2022-12-31T01:19:22.860Z,0.34
2022-12-31T01:21:51.504Z,0.30
2022-12-31T01:24:20.936Z,0.37
2022-12-31T01:26:51.599Z,0.45
2022-12-31T01:29:19.695Z,0.56
2022-12-31T01:31:47.739Z,0.64
2022-12-31T01:34:15.995Z,0.69
2022-12-31T01:36:45.521Z,0.70
2022-12-31T01:39:13.538Z,0.72
2022-12-31T01:41:44.798Z,0.79
2022-12-31T01:44:12.717Z,0.88
2022-12-31T01:46:46.897Z,0.95
2022-12-31T01:49:24.014Z,1.03
2022-12-31T01:52:02.668Z,1.10
2022-12-31T01:54:35.092Z,1.17
2022-12-31T01:57:05.317Z,1.25
2022-12-31T01:59:34.459Z,1.33
2022-12-31T02:02:03.332Z,1.41
2022-12-31T02:04:31.533Z,1.51
2022-12-31T02:07:04.334Z,1.61
2022-12-31T02:09:34.091Z,1.71
2022-12-31T02:12:02.402Z,1.84
2022-12-31T02:14:38.882Z,1.92
2022-12-31T02:17:48.623Z,2.02
2022-12-31T02:20:40.483Z,2.13
2022-12-31T02:23:41.873Z,2.19
2022-12-31T02:26:37.559Z,2.26
2022-12-31T02:29:29.657Z,2.26
2022-12-31T02:32:02.967Z,2.27
2022-12-31T02:35:02.641Z,2.30
2022-12-31T02:37:33.646Z,2.34
2022-12-31T02:40:02.937Z,2.40
2022-12-31T02:42:30.941Z,2.43
2022-12-31T02:44:58.925Z,2.47
2022-12-31T02:47:45.367Z,2.47
2022-12-31T02:50:25.734Z,2.55
2022-12-31T02:53:18.809Z,2.61
2022-12-31T02:55:58.045Z,2.68
2022-12-31T02:59:00.501Z,2.68
2022-12-31T03:01:54.248Z,2.72
2022-12-31T03:04:32.484Z,2.70
2022-12-31T03:07:03.943Z,2.71
2022-12-31T03:09:32.404Z,2.65
2022-12-31T03:12:20.397Z,2.71
2022-12-31T03:14:48.919Z,2.80
2022-12-31T03:17:16.898Z,2.89
2022-12-31T03:20:04.911Z,2.98
2022-12-31T03:22:37.666Z,3.06
2022-12-31T03:25:34.022Z,3.11
2022-12-31T03:28:06.117Z,3.18
2022-12-31T03:30:35.978Z,3.24
2022-12-31T03:33:05.797Z,3.34
2022-12-31T03:35:36.082Z,3.41
2022-12-31T03:38:04.431Z,3.46
2022-12-31T03:40:35.055Z,3.47
2022-12-31T03:43:03.077Z,3.45
2022-12-31T03:45:31.206Z,3.51
2022-12-31T03:47:59.454Z,3.56
2022-12-31T03:50:27.536Z,3.55
2022-12-31T03:52:55.926Z,3.55
2022-12-31T03:55:25.051Z,3.56
2022-12-31T03:57:53.119Z,3.55
2022-12-31T04:00:22.467Z,3.59
2022-12-31T04:02:51.166Z,3.65
2022-12-31T04:05:20.570Z,3.67
2022-12-31T04:07:49.460Z,3.68
2022-12-31T04:10:18.675Z,3.63
2022-12-31T04:12:46.741Z,3.60
2022-12-31T04:15:20.574Z,3.64
2022-12-31T04:17:49.020Z,3.68
2022-12-31T04:20:17.233Z,3.71
2022-12-31T04:22:45.405Z,3.65
2022-12-31T04:25:13.604Z,3.70
2022-12-31T04:27:43.908Z,3.77
2022-12-31T04:30:13.462Z,3.84
2022-12-31T04:32:41.834Z,3.88
2022-12-31T04:35:11.703Z,3.90
2022-12-31T04:37:39.764Z,3.93
2022-12-31T04:40:09.133Z,3.92
2022-12-31T04:42:37.423Z,3.98
2022-12-31T04:45:06.096Z,4.03
2022-12-31T04:47:34.153Z,4.07
2022-12-31T04:50:02.156Z,4.08
2022-12-31T04:52:30.287Z,4.05
2022-12-31T04:54:58.573Z,4.09
2022-12-31T04:57:26.760Z,4.13
2022-12-31T04:59:54.832Z,4.17
2022-12-31T05:02:23.121Z,4.22
2022-12-31T05:04:51.405Z,4.23
2022-12-31T05:07:19.464Z,4.29
2022-12-31T05:09:47.572Z,4.34
2022-12-31T05:12:15.595Z,4.32
2022-12-31T05:14:43.618Z,4.30
2022-12-31T05:17:11.812Z,4.23
2022-12-31T05:19:39.891Z,4.22
2022-12-31T05:22:26.774Z,4.18
2022-12-31T05:24:55.238Z,3.99
2022-12-31T05:27:23.787Z,3.87
2022-12-31T05:29:51.783Z,3.89
2022-12-31T05:32:19.774Z,3.95
2022-12-31T05:34:47.911Z,3.99
2022-12-31T05:37:16.040Z,4.02
2022-12-31T05:39:44.616Z,3.99
2022-12-31T05:42:12.649Z,4.00
2022-12-31T05:44:40.614Z,4.03
2022-12-31T05:47:08.720Z,4.02
2022-12-31T05:49:36.919Z,4.02
2022-12-31T05:52:05.057Z,3.90
2022-12-31T05:54:33.184Z,3.86
2022-12-31T05:57:01.159Z,3.81
2022-12-31T05:59:30.167Z,3.81
2022-12-31T06:01:58.348Z,3.84
2022-12-31T06:04:26.888Z,3.87
2022-12-31T06:06:55.077Z,3.89
2022-12-31T06:09:23.513Z,3.90
2022-12-31T06:11:51.668Z,3.94
2022-12-31T06:14:19.783Z,4.00
2022-12-31T06:16:47.975Z,4.04
2022-12-31T06:19:16.121Z,4.10
2022-12-31T06:21:44.129Z,4.16
2022-12-31T06:24:12.374Z,4.18
2022-12-31T06:26:40.365Z,4.18
2022-12-31T06:29:09.096Z,4.16
2022-12-31T06:31:37.552Z,4.20
2022-12-31T06:34:05.585Z,4.29
2022-12-31T06:36:33.701Z,4.38
2022-12-31T06:39:03.239Z,4.49
2022-12-31T06:41:32.358Z,4.61
2022-12-31T06:44:00.298Z,4.70
2022-12-31T06:46:28.621Z,4.80
2022-12-31T06:48:56.713Z,4.90
2022-12-31T06:51:25.496Z,5.01
2022-12-31T06:53:53.485Z,5.10
2022-12-31T06:56:31.372Z,5.18
2022-12-31T06:59:03.101Z,5.25
2022-12-31T07:01:57.520Z,5.30
2022-12-31T07:04:41.728Z,5.36
2022-12-31T07:07:17.569Z,5.38
2022-12-31T07:10:27.306Z,5.41
2022-12-31T07:13:20.568Z,5.46
2022-12-31T07:16:36.449Z,5.51
2022-12-31T07:19:36.841Z,5.53
2022-12-31T07:22:10.955Z,5.56
2022-12-31T07:24:39.204Z,5.59
2022-12-31T07:27:13.099Z,5.66
2022-12-31T07:30:03.004Z,5.76
2022-12-31T07:32:40.281Z,5.88
2022-12-31T07:35:35.044Z,5.94
2022-12-31T07:38:22.159Z,6.04
2022-12-31T07:41:02.795Z,6.11
2022-12-31T07:43:55.107Z,6.27
2022-12-31T07:46:35.897Z,6.43
2022-12-31T07:49:10.640Z,6.58
2022-12-31T07:51:39.203Z,6.71
2022-12-31T07:54:13.604Z,6.86
2022-12-31T07:56:44.116Z,7.07
2022-12-31T07:59:24.501Z,7.34
2022-12-31T08:02:24.812Z,7.66
2022-12-31T08:05:22.651Z,7.99
2022-12-31T08:08:08.916Z,8.30
2022-12-31T08:11:10.144Z,8.48
2022-12-31T08:13:41.675Z,8.75
2022-12-31T08:16:12.356Z,9.01
2022-12-31T08:18:41.075Z,9.31
2022-12-31T08:21:48.235Z,9.62
2022-12-31T08:24:25.169Z,9.92
2022-12-31T08:27:35.011Z,9.99
2022-12-31T08:30:09.370Z,10.05
2022-12-31T08:33:06.462Z,10.08
2022-12-31T08:35:50.930Z,10.17
2022-12-31T08:38:36.075Z,10.29
2022-12-31T08:41:21.956Z,10.30
2022-12-31T08:44:05.832Z,10.20
2022-12-31T08:46:45.883Z,10.05
2022-12-31T08:49:14.973Z,9.72
2022-12-31T08:51:43.074Z,9.76
2022-12-31T08:54:12.454Z,9.79
2022-12-31T08:56:50.486Z,9.85
2022-12-31T08:59:44.158Z,9.87
2022-12-31T09:02:24.431Z,9.83
2022-12-31T09:04:58.581Z,9.93
2022-12-31T09:07:47.596Z,10.01
2022-12-31T09:10:16.046Z,10.02
2022-12-31T09:12:58.817Z,10.04
2022-12-31T09:16:05.521Z,10.12
2022-12-31T09:18:38.310Z,10.22
2022-12-31T09:21:08.846Z,10.29
2022-12-31T09:23:37.394Z,10.35
2022-12-31T09:26:15.927Z,10.33
2022-12-31T09:29:06.991Z,10.41
2022-12-31T09:32:00.222Z,10.50
2022-12-31T09:34:37.352Z,10.66
2022-12-31T09:37:19.753Z,10.74
2022-12-31T09:39:49.150Z,10.81
2022-12-31T09:42:48.617Z,10.82
2022-12-31T09:45:40.741Z,10.82
2022-12-31T09:48:36.781Z,10.85
2022-12-31T09:51:25.421Z,10.89
2022-12-31T09:54:16.121Z,10.83
2022-12-31T09:56:59.158Z,10.76
2022-12-31T09:59:33.160Z,10.67
2022-12-31T10:02:18.423Z,10.72
2022-12-31T10:05:08.864Z,10.81
2022-12-31T10:08:18.608Z,10.80
2022-12-31T10:10:54.884Z,10.89
2022-12-31T10:13:29.737Z,10.85
2022-12-31T10:16:13.107Z,10.85
2022-12-31T10:19:04.254Z,10.86
2022-12-31T10:22:02.360Z,10.93
2022-12-31T10:24:53.356Z,10.95
2022-12-31T10:27:49.711Z,11.02
2022-12-31T10:30:21.520Z,11.12
2022-12-31T10:33:31.715Z,11.18
2022-12-31T10:36:15.956Z,11.33
2022-12-31T10:39:12.798Z,11.46
2022-12-31T10:41:49.325Z,11.74
2022-12-31T10:44:42.151Z,11.95
2022-12-31T10:47:34.191Z,12.12
2022-12-31T10:50:33.569Z,12.16
2022-12-31T10:53:39.610Z,12.23
2022-12-31T10:56:46.371Z,12.12
2022-12-31T10:59:47.711Z,12.06
2022-12-31T11:02:40.735Z,12.15
2022-12-31T11:05:37.763Z,12.07
2022-12-31T11:08:17.778Z,12.15
2022-12-31T11:11:40.452Z,12.19
2022-12-31T11:14:21.135Z,12.31
2022-12-31T11:17:08.370Z,12.40
2022-12-31T11:19:57.844Z,12.49
2022-12-31T11:23:02.639Z,12.52
2022-12-31T11:25:48.187Z,12.50
2022-12-31T11:28:27.478Z,12.50
2022-12-31T11:31:20.201Z,12.58
2022-12-31T11:34:07.611Z,12.58
2022-12-31T11:36:55.008Z,12.53
2022-12-31T11:39:54.402Z,12.56
2022-12-31T11:42:49.970Z,12.63
2022-12-31T11:45:39.261Z,12.65
2022-12-31T11:48:31.554Z,12.66
2022-12-31T11:51:12.427Z,12.62
2022-12-31T11:54:08.028Z,12.45
2022-12-31T11:56:41.305Z,12.36
2022-12-31T11:59:19.241Z,12.29
2022-12-31T12:02:08.107Z,12.25
2022-12-31T12:04:36.172Z,12.19
2022-12-31T12:07:13.672Z,12.17
2022-12-31T12:09:44.938Z,12.16
2022-12-31T12:12:13.531Z,12.20
2022-12-31T12:14:44.251Z,12.22
2022-12-31T12:17:20.219Z,12.22
2022-12-31T12:19:55.185Z,12.25
2022-12-31T12:22:25.989Z,12.27
2022-12-31T12:25:05.001Z,12.29
2022-12-31T12:27:35.949Z,12.32
2022-12-31T12:30:21.857Z,12.34
2022-12-31T12:33:04.807Z,12.33
2022-12-31T12:35:35.200Z,12.26
2022-12-31T12:38:06.585Z,12.17
2022-12-31T12:40:35.574Z,12.03
2022-12-31T12:43:04.170Z,11.87
2022-12-31T12:45:51.788Z,11.77
2022-12-31T12:48:35.650Z,11.70
2022-12-31T12:51:32.083Z,11.52
2022-12-31T12:54:08.999Z,11.21
2022-12-31T12:56:46.120Z,11.09
2022-12-31T12:59:36.103Z,11.08
2022-12-31T13:02:40.144Z,11.04
2022-12-31T13:05:40.255Z,11.06
2022-12-31T13:08:36.657Z,11.03
2022-12-31T13:11:04.774Z,11.01
2022-12-31T13:14:11.554Z,10.96
2022-12-31T13:17:01.371Z,10.86
2022-12-31T13:19:38.661Z,10.76
2022-12-31T13:22:38.862Z,10.41
2022-12-31T13:25:42.212Z,10.29
2022-12-31T13:28:13.944Z,10.21
2022-12-31T13:30:46.036Z,10.12
2022-12-31T13:33:21.058Z,10.03
2022-12-31T13:35:54.047Z,10.02
2022-12-31T13:38:34.145Z,9.99
2022-12-31T13:41:33.534Z,9.97
2022-12-31T13:44:32.830Z,10.02
2022-12-31T13:47:27.718Z,9.94
2022-12-31T13:50:15.199Z,9.92
2022-12-31T13:53:05.020Z,9.92
2022-12-31T13:55:38.434Z,9.79
2022-12-31T13:58:34.104Z,9.86
2022-12-31T14:01:17.326Z,9.91
2022-12-31T14:04:10.141Z,9.92
2022-12-31T14:06:45.879Z,9.91
2022-12-31T14:09:20.698Z,9.91
2022-12-31T14:12:07.351Z,9.94
2022-12-31T14:14:35.416Z,9.95
2022-12-31T14:17:23.545Z,9.97
2022-12-31T14:20:17.809Z,10.02
2022-12-31T14:23:03.085Z,10.05
2022-12-31T14:26:00.305Z,10.09
2022-12-31T14:28:31.895Z,10.12
2022-12-31T14:31:12.803Z,10.12
2022-12-31T14:33:57.182Z,10.14
2022-12-31T14:36:34.689Z,10.16
2022-12-31T14:39:42.631Z,10.18
2022-12-31T14:42:35.453Z,10.18
2022-12-31T14:45:22.428Z,10.18
2022-12-31T14:48:14.114Z,10.18
2022-12-31T14:50:46.420Z,10.20
2022-12-31T14:53:24.242Z,10.16
2022-12-31T14:56:24.783Z,10.11
2022-12-31T14:58:58.751Z,10.13
2022-12-31T15:01:27.526Z,10.11
2022-12-31T15:03:58.273Z,10.07
2022-12-31T15:06:48.022Z,10.07
2022-12-31T15:09:43.134Z,10.09
2022-12-31T15:12:32.758Z,10.08
2022-12-31T15:15:25.904Z,10.09
2022-12-31T15:18:05.368Z,10.10
2022-12-31T15:20:48.605Z,10.12
2022-12-31T15:23:25.550Z,10.11
2022-12-31T15:25:59.803Z,10.11
2022-12-31T15:28:35.393Z,10.11
2022-12-31T15:31:11.749Z,10.12
2022-12-31T15:34:01.478Z,10.09
2022-12-31T15:36:41.102Z,10.09
2022-12-31T15:39:12.226Z,10.08
2022-12-31T15:42:10.395Z,10.10
2022-12-31T15:44:50.274Z,10.05
2022-12-31T15:47:33.931Z,9.99
2022-12-31T15:50:06.635Z,9.97
2022-12-31T15:52:50.658Z,9.96
2022-12-31T15:55:33.760Z,9.85
2022-12-31T15:58:09.948Z,9.83
2022-12-31T16:01:10.111Z,9.76
2022-12-31T16:03:44.023Z,9.72
2022-12-31T16:06:14.860Z,9.77
2022-12-31T16:08:49.928Z,9.77
2022-12-31T16:11:18.577Z,9.78
2022-12-31T16:13:51.067Z,9.81
2022-12-31T16:16:28.662Z,9.75
2022-12-31T16:18:58.511Z,9.76
2022-12-31T16:21:34.663Z,9.84
2022-12-31T16:24:05.640Z,9.86
2022-12-31T16:26:54.879Z,9.83
2022-12-31T16:29:24.203Z,9.82
2022-12-31T16:31:53.851Z,9.84
2022-12-31T16:34:24.907Z,9.86
2022-12-31T16:36:56.131Z,9.88
2022-12-31T16:39:28.262Z,9.91
2022-12-31T16:42:08.651Z,9.92
2022-12-31T16:44:36.879Z,9.88
2022-12-31T16:47:07.383Z,9.77
2022-12-31T16:49:39.039Z,9.70
2022-12-31T16:52:27.308Z,9.65
2022-12-31T16:54:57.372Z,9.56
2022-12-31T16:57:29.035Z,9.55
2022-12-31T17:00:06.979Z,9.49
2022-12-31T17:02:39.239Z,9.54
2022-12-31T17:05:28.244Z,9.56
2022-12-31T17:07:56.457Z,9.59
2022-12-31T17:10:36.579Z,9.60
2022-12-31T17:13:30.259Z,9.63
2022-12-31T17:16:01.246Z,9.66
2022-12-31T17:18:38.030Z,9.67
2022-12-31T17:21:09.747Z,9.69
2022-12-31T17:23:40.051Z,9.69
2022-12-31T17:26:24.500Z,9.66
2022-12-31T17:28:54.920Z,9.64
2022-12-31T17:31:40.384Z,9.64
2022-12-31T17:34:14.631Z,9.62
2022-12-31T17:37:03.391Z,9.64
2022-12-31T17:39:49.793Z,9.67
2022-12-31T17:42:28.585Z,9.68
2022-12-31T17:45:07.272Z,9.66
2022-12-31T17:47:36.722Z,9.70
2022-12-31T17:50:17.121Z,9.73
2022-12-31T17:52:45.267Z,9.77
2022-12-31T17:55:13.392Z,9.80
2022-12-31T17:57:57.254Z,9.83
2022-12-31T18:00:27.127Z,9.81
2022-12-31T18:02:55.494Z,9.85
2022-12-31T18:05:25.228Z,9.88
2022-12-31T18:07:53.533Z,9.91
2022-12-31T18:10:24.851Z,9.92
2022-12-31T18:12:53.361Z,9.96
2022-12-31T18:15:23.797Z,10.01
2022-12-31T18:17:51.847Z,10.03
2022-12-31T18:20:20.090Z,10.08
2022-12-31T18:22:48.240Z,10.10
2022-12-31T18:25:19.946Z,10.11
2022-12-31T18:27:49.177Z,10.10
2022-12-31T18:30:17.801Z,10.11
2022-12-31T18:32:46.282Z,10.08
2022-12-31T18:36:06.981Z,10.05
2022-12-31T18:38:13.178Z,10.02
2022-12-31T18:40:44.477Z,10.00
2022-12-31T18:43:17.449Z,10.01
2022-12-31T18:45:47.173Z,10.05
2022-12-31T18:48:16.274Z,10.07
2022-12-31T18:50:45.724Z,10.11
2022-12-31T18:53:20.011Z,10.16
2022-12-31T18:55:52.901Z,10.23
2022-12-31T18:58:21.814Z,10.23
2022-12-31T19:00:50.816Z,10.21
2022-12-31T19:03:23.019Z,10.23
2022-12-31T19:05:52.075Z,10.25
2022-12-31T19:08:22.224Z,10.31
2022-12-31T19:10:52.167Z,10.35
2022-12-31T19:13:21.184Z,10.38
2022-12-31T19:15:51.678Z,10.41
2022-12-31T19:18:19.873Z,10.40
2022-12-31T19:20:47.960Z,10.39
2022-12-31T19:23:19.047Z,10.39
2022-12-31T19:25:48.352Z,10.40
2022-12-31T19:28:19.724Z,10.38
2022-12-31T19:30:47.997Z,10.35
2022-12-31T19:33:16.789Z,10.35
2022-12-31T19:35:45.205Z,10.36
2022-12-31T19:38:23.640Z,10.36
2022-12-31T19:40:53.276Z,10.31
2022-12-31T19:43:23.142Z,10.19
2022-12-31T19:45:52.008Z,10.07
2022-12-31T19:48:25.965Z,10.02
2022-12-31T19:51:00.305Z,9.94
2022-12-31T19:53:29.069Z,9.84
2022-12-31T19:55:57.075Z,9.74
2022-12-31T19:58:26.572Z,9.63
2022-12-31T20:01:02.025Z,9.57
2022-12-31T20:03:33.214Z,9.49
2022-12-31T20:06:07.753Z,9.38
2022-12-31T20:08:37.941Z,9.28
2022-12-31T20:11:12.832Z,9.21
2022-12-31T20:13:41.827Z,9.09
2022-12-31T20:16:15.947Z,8.96
2022-12-31T20:18:46.130Z,8.83
2022-12-31T20:21:20.151Z,8.71
2022-12-31T20:23:49.818Z,8.57
2022-12-31T20:26:19.230Z,8.54
2022-12-31T20:28:47.634Z,8.45
2022-12-31T20:31:18.958Z,8.34
2022-12-31T20:33:47.235Z,8.29
2022-12-31T20:36:17.349Z,8.24
2022-12-31T20:38:46.313Z,8.21
2022-12-31T20:41:16.244Z,8.15
2022-12-31T20:43:45.637Z,8.12
2022-12-31T20:46:24.856Z,8.00
2022-12-31T20:48:55.735Z,7.96
2022-12-31T20:51:24.337Z,7.92
2022-12-31T20:53:55.485Z,7.89
2022-12-31T20:56:25.488Z,7.78
2022-12-31T20:58:53.520Z,7.75
2022-12-31T21:01:22.345Z,7.77
2022-12-31T21:04:04.751Z,7.79
2022-12-31T21:06:35.058Z,7.73
2022-12-31T21:09:05.880Z,7.72
2022-12-31T21:11:53.124Z,7.70
2022-12-31T21:14:21.457Z,7.68
2022-12-31T21:16:49.572Z,7.57
2022-12-31T21:19:17.570Z,7.45
2022-12-31T21:21:45.621Z,7.44
2022-12-31T21:24:16.400Z,7.37
2022-12-31T21:26:48.337Z,7.38
2022-12-31T21:29:16.700Z,7.29
2022-12-31T21:31:44.749Z,7.28
2022-12-31T21:34:12.782Z,7.34
2022-12-31T21:36:40.784Z,7.37
2022-12-31T21:39:08.756Z,7.40
2022-12-31T21:41:52.036Z,7.40
2022-12-31T21:44:25.429Z,7.41
2022-12-31T21:47:37.468Z,7.45
2022-12-31T21:50:08.155Z,7.44
2022-12-31T21:52:36.177Z,7.44
2022-12-31T21:55:23.896Z,7.43
2022-12-31T21:58:24.812Z,7.41
2022-12-31T22:00:59.816Z,7.33
2022-12-31T22:03:28.713Z,7.32
2022-12-31T22:06:05.825Z,7.27
2022-12-31T22:08:33.994Z,7.24
2022-12-31T22:11:02.494Z,7.23
2022-12-31T22:13:30.646Z,7.18
2022-12-31T22:16:04.783Z,7.18
2022-12-31T22:18:38.946Z,7.16
2022-12-31T22:21:18.475Z,7.13
2022-12-31T22:23:50.620Z,7.12
2022-12-31T22:26:21.293Z,7.04
2022-12-31T22:28:50.636Z,6.94
2022-12-31T22:31:21.851Z,6.91
2022-12-31T22:33:50.289Z,6.79
2022-12-31T22:36:21.013Z,6.75
2022-12-31T22:38:50.933Z,6.68
2022-12-31T22:41:21.223Z,6.62
2022-12-31T22:43:52.829Z,6.52
2022-12-31T22:46:28.290Z,6.45
2022-12-31T22:49:01.255Z,6.40
2022-12-31T22:51:55.696Z,6.39
2022-12-31T22:54:18.544Z,6.38
2022-12-31T22:56:46.634Z,6.31
2022-12-31T22:59:14.622Z,6.25
2022-12-31T23:01:42.804Z,6.18
2022-12-31T23:04:12.186Z,6.10
2022-12-31T23:06:46.353Z,6.01
2022-12-31T23:09:35.362Z,5.95
2022-12-31T23:12:06.747Z,5.87
2022-12-31T23:14:54.157Z,5.83
2022-12-31T23:17:44.566Z,5.74
2022-12-31T23:20:36.565Z,5.74
2022-12-31T23:23:08.416Z,5.75
2022-12-31T23:25:48.305Z,5.72
2022-12-31T23:28:20.336Z,5.75
2022-12-31T23:30:49.129Z,5.80
2022-12-31T23:33:25.195Z,5.79
2022-12-31T23:36:06.253Z,5.73
2022-12-31T23:38:34.608Z,5.72
2022-12-31T23:41:12.129Z,5.75
2022-12-31T23:43:40.251Z,5.71
2022-12-31T23:46:08.323Z,5.71
2022-12-31T23:48:36.395Z,5.67
2022-12-31T23:51:05.069Z,5.64
2022-12-31T23:53:33.251Z,5.66
2022-12-31T23:56:22.793Z,5.65
2022-12-31T23:58:55.822Z,5.71
